sensor_id;sensor_type;location;lat;lon;timestamp;P1;durP1;ratioP1;P2;durP2;ratioP2
46222;SDS011;31943;51.410;7.564;2023-07-31T00:01:23;4.90;;;2.58;;
46222;SDS011;31943;51.410;7.564;2023-07-31T00:03:49;5.32;;;2.70;;
46222;SDS011;31943;51.410;7.564;2023-07-31T00:06:15;8.38;;;2.80;;
46222;SDS011;31943;51.410;7.564;2023-07-31T00:08:40;6.18;;;3.03;;
46222;SDS011;31943;51.410;7.564;2023-07-31T00:11:06;5.35;;;2.58;;
46222;SDS011;31943;51.410;7.564;2023-07-31T00:13:33;7.45;;;2.88;;
46222;SDS011;31943;51.410;7.564;2023-07-31T00:15:58;6.32;;;3.20;;
46222;SDS011;31943;51.410;7.564;2023-07-31T00:18:27;6.18;;;3.17;;
46222;SDS011;31943;51.410;7.564;2023-07-31T00:20:53;5.25;;;3.22;;
46222;SDS011;31943;51.410;7.564;2023-07-31T00:23:18;5.90;;;3.22;;
46222;SDS011;31943;51.410;7.564;2023-07-31T00:25:44;7.82;;;3.30;;
46222;SDS011;31943;51.410;7.564;2023-07-31T00:28:10;8.48;;;3.53;;
46222;SDS011;31943;51.410;7.564;2023-07-31T00:30:37;8.93;;;3.47;;
46222;SDS011;31943;51.410;7.564;2023-07-31T00:33:04;6.03;;;3.22;;
46222;SDS011;31943;51.410;7.564;2023-07-31T00:35:33;5.53;;;3.42;;
46222;SDS011;31943;51.410;7.564;2023-07-31T00:37:58;8.00;;;3.47;;
46222;SDS011;31943;51.410;7.564;2023-07-31T00:40:24;6.13;;;3.20;;
46222;SDS011;31943;51.410;7.564;2023-07-31T00:42:50;6.47;;;2.90;;
46222;SDS011;31943;51.410;7.564;2023-07-31T00:45:15;7.78;;;3.42;;
46222;SDS011;31943;51.410;7.564;2023-07-31T00:47:42;6.65;;;2.60;;
46222;SDS011;31943;51.410;7.564;2023-07-31T00:50:09;7.28;;;3.58;;
46222;SDS011;31943;51.410;7.564;2023-07-31T00:52:38;4.45;;;2.70;;
46222;SDS011;31943;51.410;7.564;2023-07-31T00:55:04;7.28;;;2.90;;
46222;SDS011;31943;51.410;7.564;2023-07-31T00:57:30;6.45;;;3.53;;
46222;SDS011;31943;51.410;7.564;2023-07-31T00:59:58;4.40;;;2.60;;
46222;SDS011;31943;51.410;7.564;2023-07-31T01:02:24;8.13;;;3.50;;
46222;SDS011;31943;51.410;7.564;2023-07-31T01:04:50;6.53;;;3.25;;
46222;SDS011;31943;51.410;7.564;2023-07-31T01:07:18;5.75;;;3.50;;
46222;SDS011;31943;51.410;7.564;2023-07-31T01:09:49;7.40;;;4.10;;
46222;SDS011;31943;51.410;7.564;2023-07-31T01:12:22;7.93;;;3.17;;
46222;SDS011;31943;51.410;7.564;2023-07-31T01:14:58;7.80;;;3.72;;
46222;SDS011;31943;51.410;7.564;2023-07-31T01:17:27;6.25;;;3.60;;
46222;SDS011;31943;51.410;7.564;2023-07-31T01:19:53;8.80;;;4.25;;
46222;SDS011;31943;51.410;7.564;2023-07-31T01:22:29;5.97;;;3.50;;
46222;SDS011;31943;51.410;7.564;2023-07-31T01:25:09;5.88;;;3.53;;
46222;SDS011;31943;51.410;7.564;2023-07-31T01:27:51;8.50;;;4.00;;
46222;SDS011;31943;51.410;7.564;2023-07-31T01:30:25;7.30;;;4.07;;
46222;SDS011;31943;51.410;7.564;2023-07-31T01:32:56;8.93;;;4.28;;
46222;SDS011;31943;51.410;7.564;2023-07-31T01:35:23;9.43;;;4.07;;
46222;SDS011;31943;51.410;7.564;2023-07-31T01:37:52;6.95;;;3.63;;
46222;SDS011;31943;51.410;7.564;2023-07-31T01:40:18;8.93;;;4.00;;
46222;SDS011;31943;51.410;7.564;2023-07-31T01:42:45;11.70;;;3.85;;
46222;SDS011;31943;51.410;7.564;2023-07-31T01:45:13;10.73;;;4.22;;
46222;SDS011;31943;51.410;7.564;2023-07-31T01:47:39;8.35;;;3.60;;
46222;SDS011;31943;51.410;7.564;2023-07-31T01:50:05;8.27;;;3.42;;
46222;SDS011;31943;51.410;7.564;2023-07-31T01:52:32;8.38;;;3.50;;
46222;SDS011;31943;51.410;7.564;2023-07-31T01:54:57;7.90;;;3.60;;
46222;SDS011;31943;51.410;7.564;2023-07-31T01:57:23;7.20;;;3.63;;
46222;SDS011;31943;51.410;7.564;2023-07-31T01:59:51;8.80;;;3.40;;
46222;SDS011;31943;51.410;7.564;2023-07-31T02:02:18;8.60;;;3.58;;
46222;SDS011;31943;51.410;7.564;2023-07-31T02:04:44;7.50;;;3.22;;
46222;SDS011;31943;51.410;7.564;2023-07-31T02:07:13;6.20;;;3.60;;
46222;SDS011;31943;51.410;7.564;2023-07-31T02:09:38;8.98;;;3.80;;
46222;SDS011;31943;51.410;7.564;2023-07-31T02:12:05;8.65;;;3.53;;
46222;SDS011;31943;51.410;7.564;2023-07-31T02:14:31;9.05;;;3.95;;
46222;SDS011;31943;51.410;7.564;2023-07-31T02:16:57;9.57;;;3.92;;
46222;SDS011;31943;51.410;7.564;2023-07-31T02:19:24;5.70;;;3.50;;
46222;SDS011;31943;51.410;7.564;2023-07-31T02:21:50;7.15;;;3.25;;
46222;SDS011;31943;51.410;7.564;2023-07-31T02:24:16;6.78;;;3.92;;
46222;SDS011;31943;51.410;7.564;2023-07-31T02:26:42;8.02;;;3.53;;
46222;SDS011;31943;51.410;7.564;2023-07-31T02:29:07;7.00;;;3.30;;
46222;SDS011;31943;51.410;7.564;2023-07-31T02:31:34;12.65;;;3.63;;
46222;SDS011;31943;51.410;7.564;2023-07-31T02:34:00;6.97;;;3.40;;
46222;SDS011;31943;51.410;7.564;2023-07-31T02:36:27;8.60;;;3.70;;
46222;SDS011;31943;51.410;7.564;2023-07-31T02:38:53;6.13;;;3.45;;
46222;SDS011;31943;51.410;7.564;2023-07-31T02:41:20;6.97;;;3.30;;
46222;SDS011;31943;51.410;7.564;2023-07-31T02:43:46;9.38;;;3.55;;
46222;SDS011;31943;51.410;7.564;2023-07-31T02:46:11;6.75;;;3.17;;
46222;SDS011;31943;51.410;7.564;2023-07-31T02:48:37;7.45;;;3.60;;
46222;SDS011;31943;51.410;7.564;2023-07-31T02:51:03;8.15;;;3.30;;
46222;SDS011;31943;51.410;7.564;2023-07-31T02:53:30;10.20;;;3.60;;
46222;SDS011;31943;51.410;7.564;2023-07-31T02:55:56;10.13;;;3.80;;
46222;SDS011;31943;51.410;7.564;2023-07-31T02:58:21;9.02;;;3.75;;
46222;SDS011;31943;51.410;7.564;2023-07-31T03:00:48;6.60;;;3.80;;
46222;SDS011;31943;51.410;7.564;2023-07-31T03:03:14;6.95;;;3.50;;
46222;SDS011;31943;51.410;7.564;2023-07-31T03:05:41;7.43;;;3.97;;
46222;SDS011;31943;51.410;7.564;2023-07-31T03:08:06;9.35;;;3.97;;
46222;SDS011;31943;51.410;7.564;2023-07-31T03:10:35;9.00;;;4.07;;
46222;SDS011;31943;51.410;7.564;2023-07-31T03:13:02;7.75;;;3.60;;
46222;SDS011;31943;51.410;7.564;2023-07-31T03:15:28;11.57;;;4.05;;
46222;SDS011;31943;51.410;7.564;2023-07-31T03:17:54;8.60;;;3.58;;
46222;SDS011;31943;51.410;7.564;2023-07-31T03:20:20;7.38;;;3.47;;
46222;SDS011;31943;51.410;7.564;2023-07-31T03:22:45;8.63;;;3.85;;
46222;SDS011;31943;51.410;7.564;2023-07-31T03:25:11;9.45;;;3.58;;
46222;SDS011;31943;51.410;7.564;2023-07-31T03:27:38;8.45;;;3.63;;
46222;SDS011;31943;51.410;7.564;2023-07-31T03:30:05;9.85;;;3.78;;
46222;SDS011;31943;51.410;7.564;2023-07-31T03:32:31;11.30;;;4.05;;
46222;SDS011;31943;51.410;7.564;2023-07-31T03:34:57;10.73;;;3.92;;
46222;SDS011;31943;51.410;7.564;2023-07-31T03:37:23;8.82;;;3.83;;
46222;SDS011;31943;51.410;7.564;2023-07-31T03:39:49;6.20;;;3.30;;
46222;SDS011;31943;51.410;7.564;2023-07-31T03:42:14;7.80;;;3.47;;
46222;SDS011;31943;51.410;7.564;2023-07-31T03:44:42;6.38;;;3.60;;
46222;SDS011;31943;51.410;7.564;2023-07-31T03:47:08;7.65;;;3.55;;
46222;SDS011;31943;51.410;7.564;2023-07-31T03:49:35;9.43;;;3.72;;
46222;SDS011;31943;51.410;7.564;2023-07-31T03:52:00;8.13;;;3.75;;
46222;SDS011;31943;51.410;7.564;2023-07-31T03:54:26;10.90;;;3.70;;
46222;SDS011;31943;51.410;7.564;2023-07-31T03:56:51;7.93;;;3.78;;
46222;SDS011;31943;51.410;7.564;2023-07-31T03:59:18;10.75;;;3.55;;
46222;SDS011;31943;51.410;7.564;2023-07-31T04:01:45;8.18;;;3.70;;
46222;SDS011;31943;51.410;7.564;2023-07-31T04:04:11;6.35;;;3.25;;
46222;SDS011;31943;51.410;7.564;2023-07-31T04:06:37;7.32;;;3.22;;
46222;SDS011;31943;51.410;7.564;2023-07-31T04:09:03;8.98;;;3.80;;
46222;SDS011;31943;51.410;7.564;2023-07-31T04:11:28;8.43;;;3.63;;
46222;SDS011;31943;51.410;7.564;2023-07-31T04:13:54;8.30;;;4.15;;
46222;SDS011;31943;51.410;7.564;2023-07-31T04:16:21;8.25;;;3.50;;
46222;SDS011;31943;51.410;7.564;2023-07-31T04:18:49;9.18;;;3.85;;
46222;SDS011;31943;51.410;7.564;2023-07-31T04:21:16;9.02;;;3.53;;
46222;SDS011;31943;51.410;7.564;2023-07-31T04:23:42;7.40;;;3.60;;
46222;SDS011;31943;51.410;7.564;2023-07-31T04:26:08;8.88;;;3.40;;
46222;SDS011;31943;51.410;7.564;2023-07-31T04:28:34;7.13;;;3.60;;
46222;SDS011;31943;51.410;7.564;2023-07-31T04:31:00;9.05;;;4.00;;
46222;SDS011;31943;51.410;7.564;2023-07-31T04:33:25;10.88;;;4.05;;
46222;SDS011;31943;51.410;7.564;2023-07-31T04:35:53;6.85;;;3.47;;
46222;SDS011;31943;51.410;7.564;2023-07-31T04:38:20;8.65;;;3.78;;
46222;SDS011;31943;51.410;7.564;2023-07-31T04:40:48;9.07;;;4.07;;
46222;SDS011;31943;51.410;7.564;2023-07-31T04:43:14;7.38;;;3.50;;
46222;SDS011;31943;51.410;7.564;2023-07-31T04:45:42;7.93;;;3.45;;
46222;SDS011;31943;51.410;7.564;2023-07-31T04:48:08;8.82;;;3.40;;
46222;SDS011;31943;51.410;7.564;2023-07-31T04:50:33;5.80;;;3.25;;
46222;SDS011;31943;51.410;7.564;2023-07-31T04:53:03;9.18;;;3.72;;
46222;SDS011;31943;51.410;7.564;2023-07-31T04:55:29;8.75;;;3.42;;
46222;SDS011;31943;51.410;7.564;2023-07-31T04:57:54;8.27;;;3.28;;
46222;SDS011;31943;51.410;7.564;2023-07-31T05:00:22;7.93;;;3.65;;
46222;SDS011;31943;51.410;7.564;2023-07-31T05:02:48;6.95;;;3.45;;
46222;SDS011;31943;51.410;7.564;2023-07-31T05:05:15;8.63;;;3.53;;
46222;SDS011;31943;51.410;7.564;2023-07-31T05:07:41;6.07;;;3.17;;
46222;SDS011;31943;51.410;7.564;2023-07-31T05:10:09;11.00;;;3.97;;
46222;SDS011;31943;51.410;7.564;2023-07-31T05:12:36;8.07;;;3.78;;
46222;SDS011;31943;51.410;7.564;2023-07-31T05:15:02;8.48;;;3.78;;
46222;SDS011;31943;51.410;7.564;2023-07-31T05:17:28;7.63;;;3.50;;
46222;SDS011;31943;51.410;7.564;2023-07-31T05:19:53;7.20;;;3.30;;
46222;SDS011;31943;51.410;7.564;2023-07-31T05:22:19;9.90;;;3.65;;
46222;SDS011;31943;51.410;7.564;2023-07-31T05:24:45;8.05;;;3.53;;
46222;SDS011;31943;51.410;7.564;2023-07-31T05:27:13;5.53;;;3.58;;
46222;SDS011;31943;51.410;7.564;2023-07-31T05:29:42;8.20;;;3.72;;
46222;SDS011;31943;51.410;7.564;2023-07-31T05:32:08;8.57;;;3.85;;
46222;SDS011;31943;51.410;7.564;2023-07-31T05:34:34;8.48;;;3.58;;
46222;SDS011;31943;51.410;7.564;2023-07-31T05:36:59;8.30;;;3.72;;
46222;SDS011;31943;51.410;7.564;2023-07-31T05:39:25;6.78;;;4.07;;
46222;SDS011;31943;51.410;7.564;2023-07-31T05:41:50;7.82;;;4.00;;
46222;SDS011;31943;51.410;7.564;2023-07-31T05:44:18;8.48;;;4.47;;
46222;SDS011;31943;51.410;7.564;2023-07-31T05:46:43;8.30;;;4.07;;
46222;SDS011;31943;51.410;7.564;2023-07-31T05:49:09;6.13;;;3.50;;
46222;SDS011;31943;51.410;7.564;2023-07-31T05:51:34;6.20;;;4.10;;
46222;SDS011;31943;51.410;7.564;2023-07-31T05:54:00;8.10;;;4.07;;
46222;SDS011;31943;51.410;7.564;2023-07-31T05:56:26;8.50;;;4.30;;
46222;SDS011;31943;51.410;7.564;2023-07-31T05:58:52;10.80;;;4.60;;
46222;SDS011;31943;51.410;7.564;2023-07-31T06:01:20;8.85;;;3.90;;
46222;SDS011;31943;51.410;7.564;2023-07-31T06:03:46;10.30;;;4.15;;
46222;SDS011;31943;51.410;7.564;2023-07-31T06:06:13;8.65;;;4.15;;
46222;SDS011;31943;51.410;7.564;2023-07-31T06:08:39;7.00;;;3.72;;
46222;SDS011;31943;51.410;7.564;2023-07-31T06:11:05;7.25;;;4.35;;
46222;SDS011;31943;51.410;7.564;2023-07-31T06:13:32;5.97;;;3.47;;
46222;SDS011;31943;51.410;7.564;2023-07-31T06:15:58;6.88;;;3.80;;
46222;SDS011;31943;51.410;7.564;2023-07-31T06:18:25;10.02;;;4.05;;
46222;SDS011;31943;51.410;7.564;2023-07-31T06:20:51;8.57;;;4.00;;
46222;SDS011;31943;51.410;7.564;2023-07-31T06:23:16;6.95;;;4.32;;
46222;SDS011;31943;51.410;7.564;2023-07-31T06:25:42;8.57;;;3.90;;
46222;SDS011;31943;51.410;7.564;2023-07-31T06:28:08;5.65;;;3.90;;
46222;SDS011;31943;51.410;7.564;2023-07-31T06:30:33;10.02;;;4.40;;
46222;SDS011;31943;51.410;7.564;2023-07-31T06:32:59;6.43;;;4.03;;
46222;SDS011;31943;51.410;7.564;2023-07-31T06:35:26;7.45;;;4.43;;
46222;SDS011;31943;51.410;7.564;2023-07-31T06:37:52;8.68;;;4.22;;
46222;SDS011;31943;51.410;7.564;2023-07-31T06:40:19;8.98;;;4.65;;
46222;SDS011;31943;51.410;7.564;2023-07-31T06:42:44;7.72;;;4.32;;
46222;SDS011;31943;51.410;7.564;2023-07-31T06:45:10;5.60;;;4.35;;
46222;SDS011;31943;51.410;7.564;2023-07-31T06:47:36;7.20;;;4.10;;
46222;SDS011;31943;51.410;7.564;2023-07-31T06:50:01;9.60;;;4.13;;
46222;SDS011;31943;51.410;7.564;2023-07-31T06:52:30;6.28;;;4.70;;
46222;SDS011;31943;51.410;7.564;2023-07-31T06:55:03;6.60;;;4.13;;
46222;SDS011;31943;51.410;7.564;2023-07-31T06:57:40;6.80;;;3.88;;
46222;SDS011;31943;51.410;7.564;2023-07-31T07:00:07;6.75;;;3.78;;
46222;SDS011;31943;51.410;7.564;2023-07-31T07:02:33;5.03;;;3.60;;
46222;SDS011;31943;51.410;7.564;2023-07-31T07:04:59;9.00;;;4.07;;
46222;SDS011;31943;51.410;7.564;2023-07-31T07:07:25;6.38;;;4.07;;
46222;SDS011;31943;51.410;7.564;2023-07-31T07:09:52;7.72;;;3.75;;
46222;SDS011;31943;51.410;7.564;2023-07-31T07:12:19;4.95;;;3.40;;
46222;SDS011;31943;51.410;7.564;2023-07-31T07:14:45;5.20;;;3.20;;
46222;SDS011;31943;51.410;7.564;2023-07-31T07:17:11;4.80;;;3.30;;
46222;SDS011;31943;51.410;7.564;2023-07-31T07:19:39;10.15;;;3.85;;
46222;SDS011;31943;51.410;7.564;2023-07-31T07:22:05;7.32;;;4.90;;
46222;SDS011;31943;51.410;7.564;2023-07-31T07:24:31;5.13;;;3.10;;
46222;SDS011;31943;51.410;7.564;2023-07-31T07:26:59;8.50;;;3.67;;
46222;SDS011;31943;51.410;7.564;2023-07-31T07:29:25;7.47;;;3.55;;
46222;SDS011;31943;51.410;7.564;2023-07-31T07:31:51;5.28;;;3.55;;
46222;SDS011;31943;51.410;7.564;2023-07-31T07:34:17;4.95;;;3.35;;
46222;SDS011;31943;51.410;7.564;2023-07-31T07:36:44;7.03;;;3.15;;
46222;SDS011;31943;51.410;7.564;2023-07-31T07:39:10;6.78;;;3.50;;
46222;SDS011;31943;51.410;7.564;2023-07-31T07:41:36;5.50;;;3.00;;
46222;SDS011;31943;51.410;7.564;2023-07-31T07:44:03;6.35;;;3.22;;
46222;SDS011;31943;51.410;7.564;2023-07-31T07:46:29;4.97;;;3.38;;
46222;SDS011;31943;51.410;7.564;2023-07-31T07:48:54;5.85;;;3.67;;
46222;SDS011;31943;51.410;7.564;2023-07-31T07:51:21;6.80;;;3.50;;
46222;SDS011;31943;51.410;7.564;2023-07-31T07:53:46;7.93;;;3.20;;
46222;SDS011;31943;51.410;7.564;2023-07-31T07:56:12;5.85;;;3.88;;
46222;SDS011;31943;51.410;7.564;2023-07-31T07:58:38;7.32;;;3.90;;
46222;SDS011;31943;51.410;7.564;2023-07-31T08:01:06;7.15;;;3.85;;
46222;SDS011;31943;51.410;7.564;2023-07-31T08:03:33;6.28;;;3.58;;
46222;SDS011;31943;51.410;7.564;2023-07-31T08:05:58;7.78;;;3.28;;
46222;SDS011;31943;51.410;7.564;2023-07-31T08:08:26;5.13;;;3.40;;
46222;SDS011;31943;51.410;7.564;2023-07-31T08:10:53;5.07;;;3.30;;
46222;SDS011;31943;51.410;7.564;2023-07-31T08:13:20;6.05;;;3.33;;
46222;SDS011;31943;51.410;7.564;2023-07-31T08:15:46;5.05;;;3.88;;
46222;SDS011;31943;51.410;7.564;2023-07-31T08:18:13;7.47;;;3.25;;
46222;SDS011;31943;51.410;7.564;2023-07-31T08:20:39;4.70;;;3.60;;
46222;SDS011;31943;51.410;7.564;2023-07-31T08:23:05;6.13;;;3.45;;
46222;SDS011;31943;51.410;7.564;2023-07-31T08:25:30;6.82;;;3.33;;
46222;SDS011;31943;51.410;7.564;2023-07-31T08:27:59;4.57;;;3.28;;
46222;SDS011;31943;51.410;7.564;2023-07-31T08:30:25;5.10;;;3.30;;
46222;SDS011;31943;51.410;7.564;2023-07-31T08:32:52;5.63;;;3.47;;
46222;SDS011;31943;51.410;7.564;2023-07-31T08:35:19;5.18;;;3.15;;
46222;SDS011;31943;51.410;7.564;2023-07-31T08:37:45;6.28;;;2.88;;
46222;SDS011;31943;51.410;7.564;2023-07-31T08:40:11;5.35;;;3.13;;
46222;SDS011;31943;51.410;7.564;2023-07-31T08:42:42;6.15;;;2.58;;
46222;SDS011;31943;51.410;7.564;2023-07-31T08:45:09;4.32;;;3.13;;
46222;SDS011;31943;51.410;7.564;2023-07-31T08:47:39;4.30;;;2.80;;
46222;SDS011;31943;51.410;7.564;2023-07-31T08:50:07;3.38;;;2.42;;
46222;SDS011;31943;51.410;7.564;2023-07-31T08:52:35;3.67;;;2.33;;
46222;SDS011;31943;51.410;7.564;2023-07-31T08:55:01;3.92;;;2.22;;
46222;SDS011;31943;51.410;7.564;2023-07-31T08:57:27;4.45;;;2.50;;
46222;SDS011;31943;51.410;7.564;2023-07-31T08:59:54;2.72;;;2.33;;
46222;SDS011;31943;51.410;7.564;2023-07-31T09:02:19;3.50;;;2.60;;
46222;SDS011;31943;51.410;7.564;2023-07-31T09:04:47;3.90;;;2.33;;
46222;SDS011;31943;51.410;7.564;2023-07-31T09:07:14;2.63;;;2.00;;
46222;SDS011;31943;51.410;7.564;2023-07-31T09:09:42;3.80;;;2.13;;
46222;SDS011;31943;51.410;7.564;2023-07-31T09:12:08;3.63;;;2.25;;
46222;SDS011;31943;51.410;7.564;2023-07-31T09:14:34;2.42;;;1.92;;
46222;SDS011;31943;51.410;7.564;2023-07-31T09:17:00;4.50;;;1.73;;
46222;SDS011;31943;51.410;7.564;2023-07-31T09:19:29;3.80;;;1.98;;
46222;SDS011;31943;51.410;7.564;2023-07-31T09:21:57;4.22;;;2.00;;
46222;SDS011;31943;51.410;7.564;2023-07-31T09:24:27;2.45;;;1.80;;
46222;SDS011;31943;51.410;7.564;2023-07-31T09:26:55;2.10;;;1.50;;
46222;SDS011;31943;51.410;7.564;2023-07-31T09:29:22;3.10;;;1.70;;
46222;SDS011;31943;51.410;7.564;2023-07-31T09:31:48;1.92;;;1.70;;
46222;SDS011;31943;51.410;7.564;2023-07-31T09:34:14;2.63;;;1.70;;
46222;SDS011;31943;51.410;7.564;2023-07-31T09:36:40;2.42;;;1.60;;
46222;SDS011;31943;51.410;7.564;2023-07-31T09:39:08;3.00;;;1.60;;
46222;SDS011;31943;51.410;7.564;2023-07-31T09:41:36;3.00;;;1.73;;
46222;SDS011;31943;51.410;7.564;2023-07-31T09:44:04;2.92;;;1.98;;
46222;SDS011;31943;51.410;7.564;2023-07-31T09:46:30;3.45;;;2.30;;
46222;SDS011;31943;51.410;7.564;2023-07-31T09:49:03;3.67;;;2.20;;
46222;SDS011;31943;51.410;7.564;2023-07-31T09:51:29;3.35;;;2.25;;
46222;SDS011;31943;51.410;7.564;2023-07-31T09:53:56;6.38;;;2.08;;
46222;SDS011;31943;51.410;7.564;2023-07-31T09:56:22;2.85;;;2.10;;
46222;SDS011;31943;51.410;7.564;2023-07-31T09:58:49;4.00;;;2.35;;
46222;SDS011;31943;51.410;7.564;2023-07-31T10:01:17;3.67;;;2.15;;
46222;SDS011;31943;51.410;7.564;2023-07-31T10:03:43;3.70;;;2.22;;
46222;SDS011;31943;51.410;7.564;2023-07-31T10:06:11;5.38;;;2.28;;
46222;SDS011;31943;51.410;7.564;2023-07-31T10:08:38;3.17;;;2.10;;
46222;SDS011;31943;51.410;7.564;2023-07-31T10:11:05;3.38;;;2.20;;
46222;SDS011;31943;51.410;7.564;2023-07-31T10:13:35;4.88;;;2.20;;
46222;SDS011;31943;51.410;7.564;2023-07-31T10:16:02;2.90;;;2.08;;
46222;SDS011;31943;51.410;7.564;2023-07-31T10:18:30;2.53;;;1.98;;
46222;SDS011;31943;51.410;7.564;2023-07-31T10:20:56;4.05;;;1.85;;
46222;SDS011;31943;51.410;7.564;2023-07-31T10:23:22;3.20;;;1.70;;
46222;SDS011;31943;51.410;7.564;2023-07-31T10:25:49;2.22;;;1.75;;
46222;SDS011;31943;51.410;7.564;2023-07-31T10:28:16;2.35;;;1.50;;
46222;SDS011;31943;51.410;7.564;2023-07-31T10:30:42;2.17;;;1.65;;
46222;SDS011;31943;51.410;7.564;2023-07-31T10:33:09;1.88;;;1.48;;
46222;SDS011;31943;51.410;7.564;2023-07-31T10:35:37;2.70;;;1.45;;
46222;SDS011;31943;51.410;7.564;2023-07-31T10:38:09;2.60;;;1.65;;
46222;SDS011;31943;51.410;7.564;2023-07-31T10:40:35;2.40;;;1.63;;
46222;SDS011;31943;51.410;7.564;2023-07-31T10:43:02;2.03;;;1.20;;
46222;SDS011;31943;51.410;7.564;2023-07-31T10:45:30;1.67;;;1.35;;
46222;SDS011;31943;51.410;7.564;2023-07-31T10:48:00;1.50;;;1.02;;
46222;SDS011;31943;51.410;7.564;2023-07-31T10:50:27;2.70;;;1.10;;
46222;SDS011;31943;51.410;7.564;2023-07-31T10:52:55;1.40;;;1.00;;
46222;SDS011;31943;51.410;7.564;2023-07-31T10:55:23;2.42;;;1.50;;
46222;SDS011;31943;51.410;7.564;2023-07-31T10:57:51;1.98;;;1.30;;
46222;SDS011;31943;51.410;7.564;2023-07-31T11:00:18;2.13;;;1.50;;
46222;SDS011;31943;51.410;7.564;2023-07-31T11:02:48;2.13;;;1.60;;
46222;SDS011;31943;51.410;7.564;2023-07-31T11:05:21;2.70;;;1.50;;
46222;SDS011;31943;51.410;7.564;2023-07-31T11:08:11;1.75;;;1.50;;
46222;SDS011;31943;51.410;7.564;2023-07-31T11:10:39;2.40;;;1.50;;
46222;SDS011;31943;51.410;7.564;2023-07-31T11:13:06;2.28;;;1.30;;
46222;SDS011;31943;51.410;7.564;2023-07-31T11:15:31;2.13;;;1.40;;
46222;SDS011;31943;51.410;7.564;2023-07-31T11:17:57;2.10;;;1.42;;
46222;SDS011;31943;51.410;7.564;2023-07-31T11:20:23;2.15;;;1.40;;
46222;SDS011;31943;51.410;7.564;2023-07-31T11:22:49;1.95;;;1.40;;
46222;SDS011;31943;51.410;7.564;2023-07-31T11:25:16;1.77;;;1.23;;
46222;SDS011;31943;51.410;7.564;2023-07-31T11:27:44;1.40;;;1.20;;
46222;SDS011;31943;51.410;7.564;2023-07-31T11:30:10;1.92;;;1.20;;
46222;SDS011;31943;51.410;7.564;2023-07-31T11:32:36;4.00;;;1.63;;
46222;SDS011;31943;51.410;7.564;2023-07-31T11:35:02;2.83;;;1.38;;
46222;SDS011;31943;51.410;7.564;2023-07-31T11:37:38;2.38;;;1.50;;
46222;SDS011;31943;51.410;7.564;2023-07-31T11:40:05;2.50;;;1.60;;
46222;SDS011;31943;51.410;7.564;2023-07-31T11:42:35;2.05;;;1.58;;
46222;SDS011;31943;51.410;7.564;2023-07-31T11:45:02;3.42;;;1.77;;
46222;SDS011;31943;51.410;7.564;2023-07-31T11:47:28;2.85;;;1.60;;
46222;SDS011;31943;51.410;7.564;2023-07-31T11:49:55;2.58;;;1.55;;
46222;SDS011;31943;51.410;7.564;2023-07-31T11:52:21;2.85;;;1.73;;
46222;SDS011;31943;51.410;7.564;2023-07-31T11:54:47;2.35;;;1.55;;
46222;SDS011;31943;51.410;7.564;2023-07-31T11:57:14;2.33;;;1.80;;
46222;SDS011;31943;51.410;7.564;2023-07-31T11:59:43;3.80;;;1.80;;
46222;SDS011;31943;51.410;7.564;2023-07-31T12:02:10;2.75;;;1.70;;
46222;SDS011;31943;51.410;7.564;2023-07-31T12:04:37;3.22;;;2.00;;
46222;SDS011;31943;51.410;7.564;2023-07-31T12:07:03;2.97;;;1.80;;
46222;SDS011;31943;51.410;7.564;2023-07-31T12:09:30;2.88;;;2.20;;
46222;SDS011;31943;51.410;7.564;2023-07-31T12:11:56;4.53;;;1.90;;
46222;SDS011;31943;51.410;7.564;2023-07-31T12:14:23;4.53;;;1.88;;
46222;SDS011;31943;51.410;7.564;2023-07-31T12:16:55;2.75;;;2.05;;
46222;SDS011;31943;51.410;7.564;2023-07-31T12:19:22;2.63;;;1.85;;
46222;SDS011;31943;51.410;7.564;2023-07-31T12:21:47;2.03;;;1.75;;
46222;SDS011;31943;51.410;7.564;2023-07-31T12:24:17;3.97;;;2.08;;
46222;SDS011;31943;51.410;7.564;2023-07-31T12:26:45;2.35;;;2.00;;
46222;SDS011;31943;51.410;7.564;2023-07-31T12:29:11;2.22;;;1.88;;
46222;SDS011;31943;51.410;7.564;2023-07-31T12:31:37;4.00;;;2.05;;
46222;SDS011;31943;51.410;7.564;2023-07-31T12:34:15;2.75;;;2.00;;
46222;SDS011;31943;51.410;7.564;2023-07-31T12:36:42;3.58;;;1.90;;
46222;SDS011;31943;51.410;7.564;2023-07-31T12:39:08;3.22;;;2.00;;
46222;SDS011;31943;51.410;7.564;2023-07-31T12:41:34;3.95;;;2.00;;
46222;SDS011;31943;51.410;7.564;2023-07-31T12:44:00;3.17;;;1.77;;
46222;SDS011;31943;51.410;7.564;2023-07-31T12:46:26;2.33;;;1.65;;
46222;SDS011;31943;51.410;7.564;2023-07-31T12:48:53;2.22;;;1.60;;
46222;SDS011;31943;51.410;7.564;2023-07-31T12:51:21;2.17;;;1.55;;
46222;SDS011;31943;51.410;7.564;2023-07-31T12:53:47;2.95;;;1.60;;
46222;SDS011;31943;51.410;7.564;2023-07-31T12:56:13;2.45;;;1.42;;
46222;SDS011;31943;51.410;7.564;2023-07-31T12:58:39;2.83;;;1.58;;
46222;SDS011;31943;51.410;7.564;2023-07-31T13:01:06;3.33;;;1.48;;
46222;SDS011;31943;51.410;7.564;2023-07-31T13:03:32;3.05;;;1.35;;
46222;SDS011;31943;51.410;7.564;2023-07-31T14:18:57;2.63;;;2.22;;
46222;SDS011;31943;51.410;7.564;2023-07-31T14:21:23;4.32;;;2.40;;
46222;SDS011;31943;51.410;7.564;2023-07-31T14:23:49;2.50;;;2.20;;
46222;SDS011;31943;51.410;7.564;2023-07-31T14:26:15;5.80;;;2.70;;
46222;SDS011;31943;51.410;7.564;2023-07-31T14:28:41;3.63;;;2.33;;
46222;SDS011;31943;51.410;7.564;2023-07-31T14:31:07;2.40;;;2.10;;
46222;SDS011;31943;51.410;7.564;2023-07-31T14:33:34;3.88;;;2.50;;
46222;SDS011;31943;51.410;7.564;2023-07-31T14:36:02;7.80;;;2.40;;
46222;SDS011;31943;51.410;7.564;2023-07-31T14:38:27;4.00;;;2.67;;
46222;SDS011;31943;51.410;7.564;2023-07-31T14:40:53;2.65;;;2.15;;
46222;SDS011;31943;51.410;7.564;2023-07-31T14:43:19;4.20;;;2.30;;
46222;SDS011;31943;51.410;7.564;2023-07-31T14:45:45;3.58;;;2.35;;
46222;SDS011;31943;51.410;7.564;2023-07-31T14:48:12;4.03;;;2.60;;
46222;SDS011;31943;51.410;7.564;2023-07-31T14:50:39;2.53;;;2.33;;
46222;SDS011;31943;51.410;7.564;2023-07-31T14:53:08;3.05;;;2.38;;
46222;SDS011;31943;51.410;7.564;2023-07-31T14:55:33;4.38;;;2.50;;
46222;SDS011;31943;51.410;7.564;2023-07-31T14:58:00;4.72;;;2.40;;
46222;SDS011;31943;51.410;7.564;2023-07-31T15:00:26;2.70;;;2.50;;
46222;SDS011;31943;51.410;7.564;2023-07-31T15:02:51;3.15;;;2.30;;
46222;SDS011;31943;51.410;7.564;2023-07-31T15:05:17;2.80;;;2.13;;
46222;SDS011;31943;51.410;7.564;2023-07-31T15:07:43;2.85;;;2.17;;
46222;SDS011;31943;51.410;7.564;2023-07-31T15:10:11;3.00;;;2.42;;
46222;SDS011;31943;51.410;7.564;2023-07-31T15:12:36;3.47;;;2.47;;
46222;SDS011;31943;51.410;7.564;2023-07-31T15:15:05;3.78;;;2.20;;
46222;SDS011;31943;51.410;7.564;2023-07-31T15:17:32;3.03;;;2.30;;
46222;SDS011;31943;51.410;7.564;2023-07-31T15:19:57;2.22;;;1.90;;
46222;SDS011;31943;51.410;7.564;2023-07-31T15:22:23;2.97;;;2.25;;
46222;SDS011;31943;51.410;7.564;2023-07-31T15:24:49;4.18;;;2.20;;
46222;SDS011;31943;51.410;7.564;2023-07-31T15:27:16;3.35;;;2.25;;
46222;SDS011;31943;51.410;7.564;2023-07-31T15:29:42;2.78;;;2.00;;
46222;SDS011;31943;51.410;7.564;2023-07-31T15:32:08;3.95;;;2.45;;
46222;SDS011;31943;51.410;7.564;2023-07-31T15:34:34;2.85;;;2.00;;
46222;SDS011;31943;51.410;7.564;2023-07-31T15:36:59;3.20;;;2.50;;
46222;SDS011;31943;51.410;7.564;2023-07-31T15:39:25;5.13;;;2.42;;
46222;SDS011;31943;51.410;7.564;2023-07-31T15:41:52;4.40;;;2.25;;
46222;SDS011;31943;51.410;7.564;2023-07-31T15:44:19;4.32;;;2.42;;
46222;SDS011;31943;51.410;7.564;2023-07-31T15:46:45;4.47;;;2.47;;
46222;SDS011;31943;51.410;7.564;2023-07-31T15:49:11;3.13;;;1.85;;
46222;SDS011;31943;51.410;7.564;2023-07-31T15:51:36;2.75;;;2.05;;
46222;SDS011;31943;51.410;7.564;2023-07-31T15:54:02;4.05;;;2.90;;
46222;SDS011;31943;51.410;7.564;2023-07-31T15:56:28;4.25;;;2.25;;
46222;SDS011;31943;51.410;7.564;2023-07-31T15:58:53;3.65;;;2.47;;